sensor_id;sensor_type;location;lat;lon;timestamp;pressure;altitude;pressure_sealevel;temperature;humidity
49943;BME280;36011;53.362;58.948;2023-07-09T00:00:40;96738.25;;;20.39;48.10
49943;BME280;36011;53.362;58.948;2023-07-09T00:03:41;96725.72;;;20.48;48.65
49943;BME280;36011;53.362;58.948;2023-07-09T00:06:44;96733.59;;;20.41;48.70
49943;BME280;36011;53.362;58.948;2023-07-09T00:09:48;96734.19;;;20.27;49.16
49943;BME280;36011;53.362;58.948;2023-07-09T00:12:52;96732.56;;;20.34;49.20
49943;BME280;36011;53.362;58.948;2023-07-09T00:15:57;96719.84;;;20.28;49.25
49943;BME280;36011;53.362;58.948;2023-07-09T00:19:00;96726.81;;;20.12;49.61
49943;BME280;36011;53.362;58.948;2023-07-09T00:22:04;96734.16;;;20.10;48.93
49943;BME280;36011;53.362;58.948;2023-07-09T00:25:10;96734.50;;;20.07;49.29
49943;BME280;36011;53.362;58.948;2023-07-09T00:28:19;96721.47;;;20.12;48.42
49943;BME280;36011;53.362;58.948;2023-07-09T00:31:20;96730.34;;;20.21;48.81
49943;BME280;36011;53.362;58.948;2023-07-09T00:34:25;96731.19;;;20.22;48.63
49943;BME280;36011;53.362;58.948;2023-07-09T00:37:26;96722.34;;;20.29;48.64
49943;BME280;36011;53.362;58.948;2023-07-09T00:40:27;96728.41;;;20.48;49.00
49943;BME280;36011;53.362;58.948;2023-07-09T00:43:34;96733.56;;;20.49;49.12
49943;BME280;36011;53.362;58.948;2023-07-09T00:49:40;96729.56;;;20.37;49.51
49943;BME280;36011;53.362;58.948;2023-07-09T00:52:52;96724.19;;;20.29;49.13
49943;BME280;36011;53.362;58.948;2023-07-09T00:56:01;96722.53;;;20.36;49.20
49943;BME280;36011;53.362;58.948;2023-07-09T00:59:12;96725.88;;;20.38;48.87
49943;BME280;36011;53.362;58.948;2023-07-09T01:02:17;96731.22;;;20.38;48.74
49943;BME280;36011;53.362;58.948;2023-07-09T01:05:23;96724.94;;;20.63;49.19
49943;BME280;36011;53.362;58.948;2023-07-09T01:08:28;96721.94;;;20.67;48.62
49943;BME280;36011;53.362;58.948;2023-07-09T01:11:31;96716.75;;;20.65;48.74
49943;BME280;36011;53.362;58.948;2023-07-09T01:14:32;96711.06;;;20.68;48.74
49943;BME280;36011;53.362;58.948;2023-07-09T01:17:36;96706.56;;;20.77;48.35
49943;BME280;36011;53.362;58.948;2023-07-09T01:20:38;96705.56;;;20.78;48.33
49943;BME280;36011;53.362;58.948;2023-07-09T01:23:40;96710.75;;;20.88;48.22
49943;BME280;36011;53.362;58.948;2023-07-09T01:26:44;96712.59;;;20.87;47.91
49943;BME280;36011;53.362;58.948;2023-07-09T01:29:51;96710.91;;;20.94;48.23
49943;BME280;36011;53.362;58.948;2023-07-09T01:32:55;96711.22;;;21.07;47.94
49943;BME280;36011;53.362;58.948;2023-07-09T01:35:58;96709.22;;;21.26;47.08
49943;BME280;36011;53.362;58.948;2023-07-09T01:39:00;96706.34;;;21.44;46.97
49943;BME280;36011;53.362;58.948;2023-07-09T01:42:01;96713.66;;;21.58;46.37
49943;BME280;36011;53.362;58.948;2023-07-09T01:45:02;96711.44;;;21.70;46.18
49943;BME280;36011;53.362;58.948;2023-07-09T01:48:07;96703.38;;;21.78;46.04
49943;BME280;36011;53.362;58.948;2023-07-09T01:51:17;96705.16;;;21.94;46.28
49943;BME280;36011;53.362;58.948;2023-07-09T01:54:18;96701.91;;;22.07;45.93
49943;BME280;36011;53.362;58.948;2023-07-09T01:57:24;96700.47;;;22.27;45.58
49943;BME280;36011;53.362;58.948;2023-07-09T02:00:28;96698.53;;;22.44;45.19
49943;BME280;36011;53.362;58.948;2023-07-09T02:03:33;96692.38;;;22.58;45.01
49943;BME280;36011;53.362;58.948;2023-07-09T02:06:35;96692.94;;;22.54;44.92
49943;BME280;36011;53.362;58.948;2023-07-09T02:09:41;96701.75;;;22.39;45.32
49943;BME280;36011;53.362;58.948;2023-07-09T02:12:45;96694.81;;;22.22;45.50
49943;BME280;36011;53.362;58.948;2023-07-09T02:15:52;96696.84;;;22.12;45.71
49943;BME280;36011;53.362;58.948;2023-07-09T02:18:53;96701.78;;;22.00;45.83
49943;BME280;36011;53.362;58.948;2023-07-09T02:21:59;96696.28;;;21.93;45.86
49943;BME280;36011;53.362;58.948;2023-07-09T02:25:01;96702.13;;;21.97;46.02
49943;BME280;36011;53.362;58.948;2023-07-09T02:28:03;96692.44;;;21.88;46.47
49943;BME280;36011;53.362;58.948;2023-07-09T02:31:10;96698.66;;;21.88;46.44
49943;BME280;36011;53.362;58.948;2023-07-09T02:34:11;96692.59;;;21.94;45.92
49943;BME280;36011;53.362;58.948;2023-07-09T02:37:14;96685.47;;;22.10;46.15
49943;BME280;36011;53.362;58.948;2023-07-09T02:40:16;96685.78;;;22.15;46.11
49943;BME280;36011;53.362;58.948;2023-07-09T02:43:17;96691.50;;;22.20;46.02
49943;BME280;36011;53.362;58.948;2023-07-09T02:46:20;96692.56;;;22.34;45.68
49943;BME280;36011;53.362;58.948;2023-07-09T02:49:26;96699.53;;;22.43;45.24
49943;BME280;36011;53.362;58.948;2023-07-09T02:52:27;96694.97;;;22.52;44.90
49943;BME280;36011;53.362;58.948;2023-07-09T02:55:30;96690.53;;;22.59;44.90
49943;BME280;36011;53.362;58.948;2023-07-09T02:58:33;96682.44;;;22.67;44.70
49943;BME280;36011;53.362;58.948;2023-07-09T03:01:35;96690.41;;;22.75;44.75
49943;BME280;36011;53.362;58.948;2023-07-09T03:04:39;96687.56;;;22.77;44.62
49943;BME280;36011;53.362;58.948;2023-07-09T03:07:42;96682.06;;;22.93;44.29
49943;BME280;36011;53.362;58.948;2023-07-09T03:10:43;96688.31;;;23.23;43.58
49943;BME280;36011;53.362;58.948;2023-07-09T03:13:47;96678.03;;;23.12;43.86
49943;BME280;36011;53.362;58.948;2023-07-09T03:16:48;96682.22;;;23.29;43.60
49943;BME280;36011;53.362;58.948;2023-07-09T03:19:50;96684.06;;;23.29;43.71
49943;BME280;36011;53.362;58.948;2023-07-09T03:22:53;96680.09;;;23.25;43.68
49943;BME280;36011;53.362;58.948;2023-07-09T03:25:57;96669.66;;;23.45;43.55
49943;BME280;36011;53.362;58.948;2023-07-09T03:29:00;96669.72;;;23.66;42.52
49943;BME280;36011;53.362;58.948;2023-07-09T03:32:08;96688.19;;;23.69;42.07
49943;BME280;36011;53.362;58.948;2023-07-09T03:35:14;96682.22;;;23.89;40.93
49943;BME280;36011;53.362;58.948;2023-07-09T03:38:19;96680.00;;;24.07;39.59
49943;BME280;36011;53.362;58.948;2023-07-09T03:41:20;96674.91;;;24.34;38.70
49943;BME280;36011;53.362;58.948;2023-07-09T03:44:21;96683.22;;;24.39;37.97
49943;BME280;36011;53.362;58.948;2023-07-09T03:47:24;96677.19;;;24.37;38.45
49943;BME280;36011;53.362;58.948;2023-07-09T03:50:26;96674.91;;;24.34;38.39
49943;BME280;36011;53.362;58.948;2023-07-09T03:53:27;96671.03;;;24.58;38.16
49943;BME280;36011;53.362;58.948;2023-07-09T03:56:31;96673.28;;;24.76;37.37
49943;BME280;36011;53.362;58.948;2023-07-09T03:59:32;96677.75;;;24.90;37.04
49943;BME280;36011;53.362;58.948;2023-07-09T04:02:36;96681.94;;;24.99;37.15
49943;BME280;36011;53.362;58.948;2023-07-09T04:05:40;96674.81;;;25.13;36.89
49943;BME280;36011;53.362;58.948;2023-07-09T04:08:43;96672.81;;;25.22;36.80
49943;BME280;36011;53.362;58.948;2023-07-09T04:11:46;96670.88;;;25.37;36.99
49943;BME280;36011;53.362;58.948;2023-07-09T04:14:47;96672.56;;;25.45;36.74
49943;BME280;36011;53.362;58.948;2023-07-09T04:17:51;96668.19;;;25.79;36.28
49943;BME280;36011;53.362;58.948;2023-07-09T04:20:57;96664.81;;;25.70;36.44
49943;BME280;36011;53.362;58.948;2023-07-09T04:23:58;96669.50;;;25.89;36.10
49943;BME280;36011;53.362;58.948;2023-07-09T04:27:01;96674.56;;;25.99;35.83
49943;BME280;36011;53.362;58.948;2023-07-09T04:30:04;96667.94;;;26.15;35.45
49943;BME280;36011;53.362;58.948;2023-07-09T04:33:08;96670.88;;;26.20;35.95
49943;BME280;36011;53.362;58.948;2023-07-09T04:36:12;96662.22;;;26.45;35.39
49943;BME280;36011;53.362;58.948;2023-07-09T04:39:13;96655.63;;;26.54;35.67
49943;BME280;36011;53.362;58.948;2023-07-09T04:42:20;96659.41;;;26.73;35.46
49943;BME280;36011;53.362;58.948;2023-07-09T04:45:23;96652.13;;;27.00;34.76
49943;BME280;36011;53.362;58.948;2023-07-09T04:48:24;96659.31;;;27.72;33.55
49943;BME280;36011;53.362;58.948;2023-07-09T04:51:28;96659.88;;;29.46;31.22
49943;BME280;36011;53.362;58.948;2023-07-09T04:54:31;96658.34;;;31.38;28.75
49943;BME280;36011;53.362;58.948;2023-07-09T04:57:37;96663.56;;;33.52;26.33
49943;BME280;36011;53.362;58.948;2023-07-09T05:00:40;96662.97;;;35.09;24.68
49943;BME280;36011;53.362;58.948;2023-07-09T05:03:45;96662.31;;;35.71;23.31
49943;BME280;36011;53.362;58.948;2023-07-09T05:06:48;96675.91;;;36.82;22.48
49943;BME280;36011;53.362;58.948;2023-07-09T05:09:50;96672.19;;;38.79;20.75
49943;BME280;36011;53.362;58.948;2023-07-09T05:12:56;96668.91;;;40.71;20.05
49943;BME280;36011;53.362;58.948;2023-07-09T05:16:02;96667.72;;;42.72;19.10
49943;BME280;36011;53.362;58.948;2023-07-09T05:19:05;96658.56;;;44.15;16.77
49943;BME280;36011;53.362;58.948;2023-07-09T05:22:07;96662.13;;;44.16;16.53
49943;BME280;36011;53.362;58.948;2023-07-09T05:25:11;96657.41;;;42.64;15.69
49943;BME280;36011;53.362;58.948;2023-07-09T05:28:15;96661.28;;;42.63;17.42
49943;BME280;36011;53.362;58.948;2023-07-09T05:31:19;96655.94;;;44.85;15.17
49943;BME280;36011;53.362;58.948;2023-07-09T05:34:26;96663.56;;;46.05;13.85
49943;BME280;36011;53.362;58.948;2023-07-09T05:37:31;96663.25;;;45.98;14.60
49943;BME280;36011;53.362;58.948;2023-07-09T05:40:37;96655.72;;;44.73;15.29
49943;BME280;36011;53.362;58.948;2023-07-09T05:43:44;96647.91;;;43.38;16.70
49943;BME280;36011;53.362;58.948;2023-07-09T05:46:45;96653.31;;;44.97;13.67
49943;BME280;36011;53.362;58.948;2023-07-09T05:49:46;96647.44;;;45.08;14.02
49943;BME280;36011;53.362;58.948;2023-07-09T05:52:53;96645.97;;;44.93;14.08
49943;BME280;36011;53.362;58.948;2023-07-09T05:55:57;96639.19;;;44.33;14.05
49943;BME280;36011;53.362;58.948;2023-07-09T05:59:06;96640.22;;;46.27;12.47
49943;BME280;36011;53.362;58.948;2023-07-09T06:02:12;96639.41;;;46.98;12.21
49943;BME280;36011;53.362;58.948;2023-07-09T06:05:18;96638.19;;;47.08;11.87
49943;BME280;36011;53.362;58.948;2023-07-09T06:08:23;96630.00;;;47.23;12.43
49943;BME280;36011;53.362;58.948;2023-07-09T06:11:29;96624.06;;;47.58;11.78
49943;BME280;36011;53.362;58.948;2023-07-09T06:14:36;96619.03;;;47.85;12.60
49943;BME280;36011;53.362;58.948;2023-07-09T06:17:36;96618.53;;;49.25;10.61
49943;BME280;36011;53.362;58.948;2023-07-09T06:20:45;96613.13;;;49.60;10.17
49943;BME280;36011;53.362;58.948;2023-07-09T06:23:47;96614.28;;;49.75;10.21
49943;BME280;36011;53.362;58.948;2023-07-09T06:26:53;96609.41;;;49.72;10.49
49943;BME280;36011;53.362;58.948;2023-07-09T06:29:56;96601.13;;;50.43;10.00
49943;BME280;36011;53.362;58.948;2023-07-09T06:33:01;96601.16;;;50.62;10.00
49943;BME280;36011;53.362;58.948;2023-07-09T06:36:08;96601.69;;;51.07;9.80
49943;BME280;36011;53.362;58.948;2023-07-09T06:39:14;96598.38;;;50.62;10.43
49943;BME280;36011;53.362;58.948;2023-07-09T06:42:16;96587.13;;;51.40;9.58
49943;BME280;36011;53.362;58.948;2023-07-09T06:45:20;96593.94;;;51.39;9.88
49943;BME280;36011;53.362;58.948;2023-07-09T06:48:25;96582.38;;;51.44;10.40
49943;BME280;36011;53.362;58.948;2023-07-09T06:51:29;96584.78;;;53.02;9.49
49943;BME280;36011;53.362;58.948;2023-07-09T06:54:37;96598.66;;;54.03;8.60
49943;BME280;36011;53.362;58.948;2023-07-09T06:57:40;96576.03;;;53.48;8.73
49943;BME280;36011;53.362;58.948;2023-07-09T07:00:44;96558.72;;;52.14;9.55
49943;BME280;36011;53.362;58.948;2023-07-09T07:03:47;96561.34;;;51.77;9.63
49943;BME280;36011;53.362;58.948;2023-07-09T07:06:50;96562.13;;;52.27;9.63
49943;BME280;36011;53.362;58.948;2023-07-09T07:09:55;96548.75;;;53.11;8.75
49943;BME280;36011;53.362;58.948;2023-07-09T07:13:01;96558.94;;;53.67;7.60
49943;BME280;36011;53.362;58.948;2023-07-09T07:16:04;96558.50;;;53.24;7.88
49943;BME280;36011;53.362;58.948;2023-07-09T07:19:09;96548.50;;;52.89;8.47
49943;BME280;36011;53.362;58.948;2023-07-09T07:22:11;96549.66;;;53.22;8.89
49943;BME280;36011;53.362;58.948;2023-07-09T07:25:13;96547.88;;;53.89;7.95
49943;BME280;36011;53.362;58.948;2023-07-09T07:28:16;96548.66;;;53.86;7.42
49943;BME280;36011;53.362;58.948;2023-07-09T07:31:23;96533.56;;;52.51;8.11
49943;BME280;36011;53.362;58.948;2023-07-09T07:34:24;96534.41;;;51.49;9.06
49943;BME280;36011;53.362;58.948;2023-07-09T07:37:28;96528.31;;;52.20;8.65
49943;BME280;36011;53.362;58.948;2023-07-09T07:40:32;96530.38;;;52.83;8.71
49943;BME280;36011;53.362;58.948;2023-07-09T07:43:34;96533.50;;;53.12;8.18
49943;BME280;36011;53.362;58.948;2023-07-09T07:46:38;96524.28;;;52.17;8.54
49943;BME280;36011;53.362;58.948;2023-07-09T07:49:41;96513.31;;;51.32;9.01
49943;BME280;36011;53.362;58.948;2023-07-09T07:52:44;96512.16;;;50.71;9.54
49943;BME280;36011;53.362;58.948;2023-07-09T07:55:47;96519.09;;;51.43;9.02
49943;BME280;36011;53.362;58.948;2023-07-09T07:58:50;96505.78;;;50.55;9.12
49943;BME280;36011;53.362;58.948;2023-07-09T08:01:52;96497.63;;;50.85;8.96
49943;BME280;36011;53.362;58.948;2023-07-09T08:04:55;96498.97;;;49.98;9.76
49943;BME280;36011;53.362;58.948;2023-07-09T08:07:59;96485.38;;;49.80;9.73
49943;BME280;36011;53.362;58.948;2023-07-09T08:11:03;96484.88;;;50.29;9.50
49943;BME280;36011;53.362;58.948;2023-07-09T08:14:10;96490.72;;;50.05;9.45
49943;BME280;36011;53.362;58.948;2023-07-09T08:17:13;96483.56;;;50.62;9.15
49943;BME280;36011;53.362;58.948;2023-07-09T08:20:16;96489.84;;;51.21;9.04
49943;BME280;36011;53.362;58.948;2023-07-09T08:23:19;96478.38;;;51.76;8.62
49943;BME280;36011;53.362;58.948;2023-07-09T08:26:22;96490.13;;;52.42;8.31
49943;BME280;36011;53.362;58.948;2023-07-09T08:29:29;96491.72;;;52.39;7.91
49943;BME280;36011;53.362;58.948;2023-07-09T08:32:35;96479.13;;;52.29;8.17
49943;BME280;36011;53.362;58.948;2023-07-09T08:35:38;96484.53;;;51.85;8.22
49943;BME280;36011;53.362;58.948;2023-07-09T08:38:41;96467.94;;;51.27;8.47
49943;BME280;36011;53.362;58.948;2023-07-09T08:41:48;96479.81;;;50.97;8.54
49943;BME280;36011;53.362;58.948;2023-07-09T08:48:15;96461.25;;;50.89;8.48
49943;BME280;36011;53.362;58.948;2023-07-09T08:51:31;96462.84;;;50.67;8.84
49943;BME280;36011;53.362;58.948;2023-07-09T08:54:36;96454.56;;;51.16;8.67
49943;BME280;36011;53.362;58.948;2023-07-09T08:57:40;96454.41;;;52.08;8.05
49943;BME280;36011;53.362;58.948;2023-07-09T09:00:52;96458.38;;;51.54;8.30
49943;BME280;36011;53.362;58.948;2023-07-09T09:04:00;96437.63;;;51.09;8.43
49943;BME280;36011;53.362;58.948;2023-07-09T09:10:11;96431.66;;;51.34;8.45
49943;BME280;36011;53.362;58.948;2023-07-09T09:13:15;96429.44;;;51.24;8.71
49943;BME280;36011;53.362;58.948;2023-07-09T09:16:24;96429.88;;;50.80;9.09
49943;BME280;36011;53.362;58.948;2023-07-09T09:22:33;96430.84;;;49.23;9.84
49943;BME280;36011;53.362;58.948;2023-07-09T09:25:40;96428.41;;;49.37;9.52
49943;BME280;36011;53.362;58.948;2023-07-09T09:28:44;96434.91;;;49.10;9.88
49943;BME280;36011;53.362;58.948;2023-07-09T09:31:48;96419.19;;;48.89;10.28
49943;BME280;36011;53.362;58.948;2023-07-09T09:34:53;96436.19;;;48.40;10.55
49943;BME280;36011;53.362;58.948;2023-07-09T09:37:57;96422.50;;;48.35;10.31
49943;BME280;36011;53.362;58.948;2023-07-09T09:41:01;96419.78;;;48.23;10.39
49943;BME280;36011;53.362;58.948;2023-07-09T09:44:05;96415.94;;;47.62;10.56
49943;BME280;36011;53.362;58.948;2023-07-09T09:47:10;96401.25;;;47.90;10.95
49943;BME280;36011;53.362;58.948;2023-07-09T09:50:20;96406.38;;;48.28;10.57
49943;BME280;36011;53.362;58.948;2023-07-09T09:53:24;96396.59;;;47.94;10.73
49943;BME280;36011;53.362;58.948;2023-07-09T09:56:30;96393.38;;;46.69;11.28
49943;BME280;36011;53.362;58.948;2023-07-09T09:59:35;96382.22;;;45.01;12.13
49943;BME280;36011;53.362;58.948;2023-07-09T10:02:39;96379.66;;;44.14;12.71
49943;BME280;36011;53.362;58.948;2023-07-09T10:05:47;96382.59;;;43.57;13.31
49943;BME280;36011;53.362;58.948;2023-07-09T10:09:04;96363.66;;;43.77;13.09
49943;BME280;36011;53.362;58.948;2023-07-09T10:21:23;96360.00;;;42.44;14.63
49943;BME280;36011;53.362;58.948;2023-07-09T10:27:42;96354.25;;;42.72;13.84
49943;BME280;36011;53.362;58.948;2023-07-09T10:40:41;96321.97;;;40.96;15.03
49943;BME280;36011;53.362;58.948;2023-07-09T10:43:50;96337.81;;;41.68;14.78
49943;BME280;36011;53.362;58.948;2023-07-09T10:46:57;96341.22;;;41.87;14.67
49943;BME280;36011;53.362;58.948;2023-07-09T10:50:02;96326.66;;;41.23;15.14
49943;BME280;36011;53.362;58.948;2023-07-09T10:53:14;96329.84;;;40.75;15.44
49943;BME280;36011;53.362;58.948;2023-07-09T10:56:22;96318.53;;;40.63;15.56
49943;BME280;36011;53.362;58.948;2023-07-09T10:59:35;96308.38;;;40.11;15.75
49943;BME280;36011;53.362;58.948;2023-07-09T11:02:40;96307.25;;;40.12;16.11
49943;BME280;36011;53.362;58.948;2023-07-09T11:05:45;96305.94;;;39.58;16.30
49943;BME280;36011;53.362;58.948;2023-07-09T11:08:49;96300.00;;;39.32;16.15
49943;BME280;36011;53.362;58.948;2023-07-09T11:11:55;96304.69;;;39.32;16.69
49943;BME280;36011;53.362;58.948;2023-07-09T11:15:02;96310.66;;;39.39;16.95
49943;BME280;36011;53.362;58.948;2023-07-09T11:18:07;96301.19;;;39.45;16.77
49943;BME280;36011;53.362;58.948;2023-07-09T11:21:14;96309.97;;;39.47;17.02
49943;BME280;36011;53.362;58.948;2023-07-09T11:27:53;96302.81;;;39.84;16.68
49943;BME280;36011;53.362;58.948;2023-07-09T11:31:05;96299.25;;;40.30;15.93
49943;BME280;36011;53.362;58.948;2023-07-09T11:34:10;96309.69;;;40.60;15.26
49943;BME280;36011;53.362;58.948;2023-07-09T11:37:14;96307.25;;;40.73;14.71
49943;BME280;36011;53.362;58.948;2023-07-09T11:40:17;96292.56;;;40.64;14.93
49943;BME280;36011;53.362;58.948;2023-07-09T11:43:46;96292.34;;;40.74;14.68
49943;BME280;36011;53.362;58.948;2023-07-09T11:46:52;96298.09;;;40.77;14.85
49943;BME280;36011;53.362;58.948;2023-07-09T11:50:00;96293.06;;;40.79;14.42
49943;BME280;36011;53.362;58.948;2023-07-09T11:53:12;96288.41;;;40.20;13.85
49943;BME280;36011;53.362;58.948;2023-07-09T11:56:20;96287.91;;;39.85;13.93
49943;BME280;36011;53.362;58.948;2023-07-09T11:59:24;96282.78;;;39.78;13.96
49943;BME280;36011;53.362;58.948;2023-07-09T12:02:30;96294.50;;;40.16;13.91
49943;BME280;36011;53.362;58.948;2023-07-09T12:05:34;96292.56;;;40.64;13.90
49943;BME280;36011;53.362;58.948;2023-07-09T12:08:37;96282.06;;;40.66;13.84
49943;BME280;36011;53.362;58.948;2023-07-09T12:11:46;96283.69;;;40.67;14.39
49943;BME280;36011;53.362;58.948;2023-07-09T12:14:49;96283.75;;;40.89;14.04
49943;BME280;36011;53.362;58.948;2023-07-09T12:18:03;96276.56;;;41.16;13.97
49943;BME280;36011;53.362;58.948;2023-07-09T12:21:07;96280.19;;;41.39;13.96
49943;BME280;36011;53.362;58.948;2023-07-09T12:24:17;96280.38;;;41.42;13.81
49943;BME280;36011;53.362;58.948;2023-07-09T12:27:22;96272.88;;;41.79;13.56
49943;BME280;36011;53.362;58.948;2023-07-09T12:30:27;96271.56;;;42.30;13.35
49943;BME280;36011;53.362;58.948;2023-07-09T12:33:29;96275.25;;;42.48;13.32
49943;BME280;36011;53.362;58.948;2023-07-09T12:36:32;96274.22;;;41.82;13.44
49943;BME280;36011;53.362;58.948;2023-07-09T12:39:36;96275.13;;;41.04;13.64
49943;BME280;36011;53.362;58.948;2023-07-09T12:42:40;96271.97;;;40.14;14.07
49943;BME280;36011;53.362;58.948;2023-07-09T12:45:47;96266.69;;;39.34;14.97
49943;BME280;36011;53.362;58.948;2023-07-09T12:48:48;96265.19;;;38.79;15.40
49943;BME280;36011;53.362;58.948;2023-07-09T12:51:54;96263.47;;;38.35;15.62
49943;BME280;36011;53.362;58.948;2023-07-09T12:54:58;96262.13;;;38.09;15.74
49943;BME280;36011;53.362;58.948;2023-07-09T12:58:02;96258.97;;;37.91;16.27
49943;BME280;36011;53.362;58.948;2023-07-09T13:01:12;96268.88;;;37.87;16.14
49943;BME280;36011;53.362;58.948;2023-07-09T13:04:15;96261.50;;;37.53;17.01
49943;BME280;36011;53.362;58.948;2023-07-09T13:10:43;96259.41;;;37.40;16.73
49943;BME280;36011;53.362;58.948;2023-07-09T13:14:02;96265.34;;;37.47;17.23
49943;BME280;36011;53.362;58.948;2023-07-09T13:17:06;96265.88;;;37.60;17.19
49943;BME280;36011;53.362;58.948;2023-07-09T13:20:08;96258.88;;;37.33;17.61
49943;BME280;36011;53.362;58.948;2023-07-09T13:23:13;96254.03;;;37.20;17.55
49943;BME280;36011;53.362;58.948;2023-07-09T13:26:15;96256.38;;;37.37;17.46
49943;BME280;36011;53.362;58.948;2023-07-09T13:29:21;96253.50;;;37.23;17.23
49943;BME280;36011;53.362;58.948;2023-07-09T13:32:23;96251.75;;;37.37;17.16
49943;BME280;36011;53.362;58.948;2023-07-09T13:35:25;96249.78;;;37.03;17.53
49943;BME280;36011;53.362;58.948;2023-07-09T13:38:28;96243.91;;;36.66;17.50
49943;BME280;36011;53.362;58.948;2023-07-09T13:41:32;96243.41;;;36.43;17.82
49943;BME280;36011;53.362;58.948;2023-07-09T13:44:35;96239.38;;;36.20;17.60
49943;BME280;36011;53.362;58.948;2023-07-09T13:47:39;96227.63;;;36.04;17.61
49943;BME280;36011;53.362;58.948;2023-07-09T13:50:42;96229.56;;;35.98;17.73
49943;BME280;36011;53.362;58.948;2023-07-09T13:53:47;96225.97;;;35.98;17.60
49943;BME280;36011;53.362;58.948;2023-07-09T13:56:51;96233.38;;;35.97;17.84
49943;BME280;36011;53.362;58.948;2023-07-09T13:59:57;96222.19;;;35.94;17.91
49943;BME280;36011;53.362;58.948;2023-07-09T14:03:02;96226.84;;;35.83;18.10
49943;BME280;36011;53.362;58.948;2023-07-09T14:06:04;96226.63;;;35.59;18.28
49943;BME280;36011;53.362;58.948;2023-07-09T14:09:06;96221.97;;;35.60;18.05
49943;BME280;36011;53.362;58.948;2023-07-09T14:12:07;96221.13;;;35.74;18.00
49943;BME280;36011;53.362;58.948;2023-07-09T14:15:17;96228.78;;;35.83;18.01
49943;BME280;36011;53.362;58.948;2023-07-09T14:18:21;96228.50;;;35.84;17.93
49943;BME280;36011;53.362;58.948;2023-07-09T14:21:27;96223.84;;;35.85;18.08
49943;BME280;36011;53.362;58.948;2023-07-09T14:24:30;96223.03;;;35.84;17.87
49943;BME280;36011;53.362;58.948;2023-07-09T14:27:36;96226.03;;;35.93;18.59
49943;BME280;36011;53.362;58.948;2023-07-09T14:30:40;96225.22;;;35.82;18.74
49943;BME280;36011;53.362;58.948;2023-07-09T14:33:46;96227.94;;;35.67;18.92
49943;BME280;36011;53.362;58.948;2023-07-09T14:36:51;96223.84;;;35.54;18.94
49943;BME280;36011;53.362;58.948;2023-07-09T14:39:55;96226.03;;;35.42;19.18
49943;BME280;36011;53.362;58.948;2023-07-09T14:42:58;96227.13;;;35.25;19.42
49943;BME280;36011;53.362;58.948;2023-07-09T14:46:03;96236.34;;;35.04;19.96
49943;BME280;36011;53.362;58.948;2023-07-09T14:49:07;96234.97;;;34.86;19.99
49943;BME280;36011;53.362;58.948;2023-07-09T14:52:14;96225.91;;;34.75;20.08
49943;BME280;36011;53.362;58.948;2023-07-09T14:55:21;96222.63;;;34.68;20.19
49943;BME280;36011;53.362;58.948;2023-07-09T14:58:25;96230.81;;;34.63;20.14
49943;BME280;36011;53.362;58.948;2023-07-09T15:01:27;96232.38;;;34.49;20.26
49943;BME280;36011;53.362;58.948;2023-07-09T15:04:29;96223.03;;;34.34;20.33
49943;BME280;36011;53.362;58.948;2023-07-09T15:07:33;96233.31;;;34.17;20.48
49943;BME280;36011;53.362;58.948;2023-07-09T15:10:40;96227.41;;;33.93;21.17
49943;BME280;36011;53.362;58.948;2023-07-09T15:13:45;96220.53;;;33.80;21.10
49943;BME280;36011;53.362;58.948;2023-07-09T15:16:47;96214.44;;;34.10;21.09
49943;BME280;36011;53.362;58.948;2023-07-09T15:19:48;96217.44;;;34.09;21.00
49943;BME280;36011;53.362;58.948;2023-07-09T15:22:53;96225.47;;;33.88;20.80
49943;BME280;36011;53.362;58.948;2023-07-09T15:25:58;96223.16;;;33.70;21.36
49943;BME280;36011;53.362;58.948;2023-07-09T15:29:04;96220.31;;;33.54;21.28
49943;BME280;36011;53.362;58.948;2023-07-09T15:32:08;96215.28;;;33.41;21.24
49943;BME280;36011;53.362;58.948;2023-07-09T15:35:14;96212.75;;;33.29;21.15
49943;BME280;36011;53.362;58.948;2023-07-09T15:41:22;96218.75;;;32.99;21.71
49943;BME280;36011;53.362;58.948;2023-07-09T15:44:26;96215.84;;;32.84;21.90
49943;BME280;36011;53.362;58.948;2023-07-09T15:47:28;96212.13;;;32.68;21.82
49943;BME280;36011;53.362;58.948;2023-07-09T15:50:29;96221.47;;;32.50;22.05
49943;BME280;36011;53.362;58.948;2023-07-09T15:53:34;96221.16;;;32.30;22.53
49943;BME280;36011;53.362;58.948;2023-07-09T15:56:39;96217.13;;;32.10;22.18
49943;BME280;36011;53.362;58.948;2023-07-09T15:59:43;96225.22;;;31.88;22.31
49943;BME280;36011;53.362;58.948;2023-07-09T16:02:47;96228.72;;;31.67;22.82
49943;BME280;36011;53.362;58.948;2023-07-09T16:05:49;96228.41;;;31.46;23.19
49943;BME280;36011;53.362;58.948;2023-07-09T16:08:52;96230.00;;;31.30;22.83
49943;BME280;36011;53.362;58.948;2023-07-09T16:11:53;96229.66;;;31.10;23.61
49943;BME280;36011;53.362;58.948;2023-07-09T16:14:57;96232.50;;;30.86;23.88
49943;BME280;36011;53.362;58.948;2023-07-09T16:18:00;96237.72;;;30.76;23.91
49943;BME280;36011;53.362;58.948;2023-07-09T16:21:04;96240.38;;;30.59;23.77
49943;BME280;36011;53.362;58.948;2023-07-09T16:24:14;96241.13;;;30.43;24.25
49943;BME280;36011;53.362;58.948;2023-07-09T16:27:19;96240.00;;;30.27;25.14
49943;BME280;36011;53.362;58.948;2023-07-09T16:30:24;96237.66;;;30.07;25.17
49943;BME280;36011;53.362;58.948;2023-07-09T16:33:30;96246.06;;;29.82;26.47
49943;BME280;36011;53.362;58.948;2023-07-09T16:36:34;96244.84;;;29.54;25.78
49943;BME280;36011;53.362;58.948;2023-07-09T16:39:38;96250.94;;;29.38;27.29
49943;BME280;36011;53.362;58.948;2023-07-09T16:42:45;96242.16;;;29.13;27.75
49943;BME280;36011;53.362;58.948;2023-07-09T16:45:49;96252.44;;;28.92;27.99
49943;BME280;36011;53.362;58.948;2023-07-09T16:48:53;96253.34;;;28.74;28.59
49943;BME280;36011;53.362;58.948;2023-07-09T16:51:59;96255.84;;;28.57;29.20